Liberty Lake, Washington
Current Conditions -  °F | °C
As of 11:53 AM on Thursday 30 Oct 2014 (Local Time) from KSFF Reporting Station
Overcast Overcast  
Wind Chill: 54°   Ceiling: 8000
Heat Index: 54°   Visibility: 10mi
Dew Point: 43°   Wind: 9mph
Humidity: 66%   Direction: 100°E
Pressure: 30.07"   Gusts: NA
Location:  47.65°N, 117.09°W
Report Text: KSFF 301853Z 10008KT 10SM BKN080 OVC095 12/06 A3007 RMK AO2 SLP184 T01220061
Loading
Personal Weather Stations






























Interactive Weather Map
Tropical Storm Tracking
New forecast layout! Learn more

10-Day Weather Forecast

Advertisements
Track Severe Weather on mobile